Time;durP1;ratioP1;P1;durP2;ratioP2;P2;SDS_P1;SDS_P2;PMS_P1;PMS_P2;Temp;Humidity;BMP_temperature;BMP_pressure;BME280_temperature;BME280_humidity;BME280_pressure;Samples;Min_cycle;Max_cycle;Signal;HPM_P1;HPM_P2
2022/01/04 00:00:40;;;;;;;24.73;8.80;;;8.00;99.90;;;;;;5017852;28;20054;-67
2022/01/04 00:03:06;;;;;;;22.92;8.98;;;8.00;99.90;;;;;;5018356;28;20060;-67
2022/01/04 00:05:32;;;;;;;19.38;8.73;;;8.00;99.90;;;;;;5018385;28;20053;-66
2022/01/04 00:07:59;;;;;;;22.58;8.20;;;8.00;99.90;;;;;;5021408;28;20056;-68
2022/01/04 00:10:26;;;;;;;18.50;7.85;;;8.10;99.90;;;;;;5038117;28;20048;-67
2022/01/04 00:15:39;;;;;;;17.02;7.10;;;8.10;99.90;;;;;;5038146;28;20052;-68
2022/01/04 00:18:05;;;;;;;15.63;7.40;;;8.10;99.90;;;;;;5037338;28;20052;-68
2022/01/04 00:20:30;;;;;;;16.15;7.90;;;8.10;99.90;;;;;;5038311;28;20061;-67
2022/01/04 00:22:56;;;;;;;22.67;8.30;;;8.10;99.90;;;;;;5037552;28;20453;-67
2022/01/04 00:25:21;;;;;;;19.10;7.97;;;8.00;99.90;;;;;;5037881;28;20045;-67
2022/01/04 00:27:47;;;;;;;17.13;7.22;;;8.00;99.90;;;;;;5018604;28;20114;-68
2022/01/04 00:30:13;;;;;;;17.70;7.68;;;8.10;99.90;;;;;;5001936;28;20057;-67
2022/01/04 00:32:39;;;;;;;27.10;8.15;;;8.10;99.90;;;;;;5017859;28;20057;-68
2022/01/04 00:35:05;;;;;;;21.38;8.18;;;8.10;99.90;;;;;;5036892;28;20056;-69
2022/01/04 00:37:30;;;;;;;21.90;7.53;;;8.10;99.90;;;;;;5037491;28;20473;-69
2022/01/04 00:39:57;;;;;;;21.23;8.18;;;8.00;99.90;;;;;;5037466;28;20063;-66
2022/01/04 00:42:23;;;;;;;19.70;7.70;;;8.00;99.90;;;;;;5037324;28;20119;-67
2022/01/04 00:44:49;;;;;;;16.35;7.82;;;8.10;99.90;;;;;;5036678;28;20473;-68
2022/01/04 00:47:15;;;;;;;17.10;8.18;;;8.10;99.90;;;;;;5036878;28;20087;-67
2022/01/04 00:49:41;;;;;;;25.05;8.32;;;8.10;99.90;;;;;;5035411;28;20057;-66
2022/01/04 00:52:12;;;;;;;19.90;8.32;;;8.10;99.90;;;;;;5034998;28;20512;-66
2022/01/04 00:54:38;;;;;;;24.02;8.85;;;8.10;99.90;;;;;;5017113;28;20058;-68
2022/01/04 00:57:04;;;;;;;18.65;8.32;;;8.20;99.90;;;;;;5018405;28;20053;-69
2022/01/04 00:59:29;;;;;;;20.02;8.52;;;8.20;99.90;;;;;;5037456;28;20501;-67
2022/01/04 01:01:55;;;;;;;21.05;8.93;;;8.20;99.90;;;;;;5036128;28;20061;-68
2022/01/04 01:04:22;;;;;;;24.45;9.20;;;8.20;99.90;;;;;;5017131;28;20393;-68
2022/01/04 01:06:47;;;;;;;22.95;9.20;;;8.20;99.90;;;;;;5016715;28;20050;-67
2022/01/04 01:09:13;;;;;;;20.38;7.82;;;8.30;99.90;;;;;;5036609;28;20049;-67
2022/01/04 01:11:39;;;;;;;21.65;9.25;;;8.30;99.90;;;;;;5037499;28;20098;-65
2022/01/04 01:14:04;;;;;;;23.17;8.32;;;8.20;99.90;;;;;;5036742;28;20172;-68
2022/01/04 01:16:30;;;;;;;22.17;9.38;;;8.30;99.90;;;;;;5036557;28;20049;-68
2022/01/04 01:18:55;;;;;;;23.48;8.50;;;8.30;99.90;;;;;;5034558;28;20045;-67
2022/01/04 01:21:21;;;;;;;20.80;8.60;;;8.20;99.90;;;;;;5037289;28;20133;-67
2022/01/04 01:23:47;;;;;;;21.00;8.70;;;8.30;99.90;;;;;;5052925;28;20087;-67
2022/01/04 01:26:12;;;;;;;17.08;7.90;;;8.20;99.90;;;;;;5054305;28;20081;-66
2022/01/04 01:28:38;;;;;;;17.38;8.40;;;8.20;99.90;;;;;;5036870;28;20049;-68
2022/01/04 01:31:04;;;;;;;26.92;10.32;;;8.20;99.90;;;;;;5036346;28;20069;-67
2022/01/04 01:33:30;;;;;;;30.08;10.35;;;8.20;99.90;;;;;;5034210;28;20508;-67
2022/01/04 01:35:57;;;;;;;21.85;8.95;;;8.20;99.90;;;;;;5036560;28;20107;-67
2022/01/04 01:38:23;;;;;;;19.38;8.88;;;8.20;99.90;;;;;;5036533;28;20057;-68
2022/01/04 01:40:49;;;;;;;18.83;8.68;;;8.20;99.90;;;;;;5036122;28;20044;-67
2022/01/04 01:43:16;;;;;;;20.02;9.07;;;8.20;99.90;;;;;;5054254;28;20221;-68
2022/01/04 01:45:41;;;;;;;24.65;8.73;;;8.10;99.90;;;;;;5035780;28;20124;-67
2022/01/04 01:48:07;;;;;;;26.23;9.32;;;8.10;99.90;;;;;;5035410;28;20128;-68
2022/01/04 01:50:33;;;;;;;22.80;10.32;;;8.10;99.90;;;;;;5035466;28;20045;-66
2022/01/04 01:52:59;;;;;;;22.92;9.23;;;8.10;99.90;;;;;;5035411;28;20489;-66
2022/01/04 01:55:25;;;;;;;16.95;8.98;;;8.10;99.90;;;;;;5036232;28;20057;-69
2022/01/04 01:57:51;;;;;;;22.55;9.32;;;8.10;99.90;;;;;;5035626;28;20048;-66
2022/01/04 02:00:19;;;;;;;20.45;8.75;;;8.10;99.90;;;;;;5053826;28;20061;-67
2022/01/04 02:02:45;;;;;;;22.58;9.63;;;8.00;99.90;;;;;;5033966;28;20071;-66
2022/01/04 02:05:11;;;;;;;20.25;9.45;;;8.00;99.90;;;;;;5036092;28;20049;-66
2022/01/04 02:07:39;;;;;;;19.50;9.07;;;8.00;99.90;;;;;;5035365;28;20056;-67
2022/01/04 02:10:06;;;;;;;21.70;9.57;;;7.90;99.90;;;;;;5053542;28;20045;-67
2022/01/04 02:12:36;;;;;;;25.17;10.43;;;7.80;99.90;;;;;;5053401;28;20084;-68
2022/01/04 02:15:07;;;;;;;21.27;9.05;;;7.80;99.90;;;;;;5019408;28;20049;-65
2022/01/04 02:17:33;;;;;;;26.75;10.32;;;7.80;99.90;;;;;;5041497;28;20124;-66
2022/01/04 02:19:59;;;;;;;27.70;10.48;;;7.80;99.90;;;;;;5016274;28;20497;-66
2022/01/04 02:22:26;;;;;;;21.05;9.70;;;7.80;99.90;;;;;;5016133;28;20111;-68
2022/01/04 02:24:52;;;;;;;22.20;9.95;;;7.70;99.90;;;;;;5015849;28;20096;-66
2022/01/04 02:27:18;;;;;;;23.55;9.35;;;7.70;99.90;;;;;;5025068;28;20430;-67
2022/01/04 02:29:44;;;;;;;28.27;10.73;;;7.70;99.90;;;;;;5036449;28;20053;-68
2022/01/04 02:32:10;;;;;;;21.02;10.30;;;7.60;99.90;;;;;;5043043;28;20041;-66
2022/01/04 02:34:36;;;;;;;25.45;10.40;;;7.60;99.90;;;;;;5015396;28;20045;-68
2022/01/04 02:37:02;;;;;;;24.20;11.02;;;7.60;99.90;;;;;;5015271;28;20045;-68
2022/01/04 02:39:28;;;;;;;25.42;10.88;;;7.60;99.90;;;;;;5016107;28;20089;-67
2022/01/04 02:41:53;;;;;;;29.15;10.88;;;7.60;99.90;;;;;;5023245;28;20044;-66
2022/01/04 02:44:19;;;;;;;22.08;10.82;;;7.60;99.90;;;;;;5035873;28;20106;-67
2022/01/04 02:46:44;;;;;;;24.48;10.75;;;7.60;99.90;;;;;;5051840;28;20079;-70
2022/01/04 02:49:10;;;;;;;22.60;10.45;;;7.60;99.90;;;;;;5033618;28;20045;-66
2022/01/04 02:51:36;;;;;;;26.80;10.77;;;7.60;99.90;;;;;;5033609;28;20052;-67
2022/01/04 02:54:01;;;;;;;22.77;11.50;;;7.60;99.90;;;;;;5035264;28;20073;-68
2022/01/04 02:56:27;;;;;;;23.15;10.52;;;7.60;99.90;;;;;;5034857;28;20504;-67
2022/01/04 02:58:53;;;;;;;30.45;10.45;;;7.60;99.90;;;;;;5035559;28;20076;-66
2022/01/04 03:01:18;;;;;;;27.08;11.32;;;7.50;99.90;;;;;;5034310;28;20052;-67
2022/01/04 03:03:44;;;;;;;25.73;11.23;;;7.60;99.90;;;;;;5034712;28;20044;-66
2022/01/04 03:06:14;;;;;;;30.60;11.27;;;7.50;99.90;;;;;;5031523;28;20511;-68
2022/01/04 03:08:39;;;;;;;31.33;11.57;;;7.50;99.90;;;;;;5034551;28;20060;-67
2022/01/04 03:11:05;;;;;;;26.45;11.68;;;7.50;99.90;;;;;;5034686;28;20102;-68
2022/01/04 03:13:31;;;;;;;30.23;11.77;;;7.50;99.90;;;;;;5050036;28;20059;-68
2022/01/04 03:15:56;;;;;;;25.80;11.35;;;7.50;99.90;;;;;;5024134;28;20092;-67
2022/01/04 03:18:22;;;;;;;32.50;11.88;;;7.50;99.90;;;;;;5034987;28;20053;-67
2022/01/04 03:20:48;;;;;;;26.35;11.93;;;7.50;99.90;;;;;;5052353;28;20502;-67
2022/01/04 03:23:13;;;;;;;29.02;11.57;;;7.60;99.90;;;;;;5034949;28;20472;-67
2022/01/04 03:25:40;;;;;;;27.90;12.10;;;7.60;99.90;;;;;;5034529;28;20053;-67
2022/01/04 03:28:06;;;;;;;31.70;12.30;;;7.60;99.90;;;;;;5017088;28;20068;-66
2022/01/04 03:30:33;;;;;;;35.55;12.80;;;7.60;99.90;;;;;;5022873;28;20045;-67
2022/01/04 03:33:00;;;;;;;28.77;12.38;;;7.70;99.90;;;;;;5052089;28;20099;-67
2022/01/04 03:35:26;;;;;;;27.17;12.75;;;7.70;99.90;;;;;;5034163;28;20132;-66
2022/01/04 03:37:52;;;;;;;26.80;12.57;;;7.80;99.90;;;;;;5050149;28;20057;-65
2022/01/04 03:40:18;;;;;;;30.30;13.98;;;7.80;99.90;;;;;;5034827;28;20049;-68
2022/01/04 03:42:44;;;;;;;29.13;12.63;;;7.90;99.90;;;;;;5034043;28;20049;-67
2022/01/04 03:45:09;;;;;;;28.25;11.93;;;7.90;99.90;;;;;;5034397;28;20045;-67
2022/01/04 03:47:35;;;;;;;21.02;11.32;;;7.90;99.90;;;;;;5033866;28;20504;-68
2022/01/04 03:50:03;;;;;;;26.63;11.35;;;7.90;99.90;;;;;;5033714;28;20049;-69
2022/01/04 03:52:28;;;;;;;28.17;11.82;;;7.90;99.90;;;;;;5033426;28;20132;-69
2022/01/04 03:54:54;;;;;;;26.50;12.75;;;7.90;99.90;;;;;;5052350;28;20124;-66
2022/01/04 03:57:20;;;;;;;26.83;12.48;;;8.00;99.90;;;;;;5034502;28;20405;-68
2022/01/04 03:59:46;;;;;;;25.67;11.93;;;8.00;99.90;;;;;;5050957;28;20049;-66
2022/01/04 04:02:11;;;;;;;28.20;12.85;;;8.00;99.90;;;;;;5034003;28;20076;-68
2022/01/04 04:04:37;;;;;;;27.77;12.70;;;8.00;99.90;;;;;;5033837;28;20126;-67
2022/01/04 04:07:03;;;;;;;25.75;12.80;;;8.00;99.90;;;;;;5033217;28;20053;-68
2022/01/04 04:09:30;;;;;;;24.15;12.35;;;8.00;99.90;;;;;;5032899;28;20057;-66
2022/01/04 04:11:56;;;;;;;23.83;11.85;;;8.00;99.90;;;;;;5033904;28;20049;-66
2022/01/04 04:14:21;;;;;;;22.17;11.95;;;8.00;99.90;;;;;;5034213;28;20057;-68
2022/01/04 04:16:47;;;;;;;28.67;12.10;;;8.00;99.90;;;;;;5034000;28;20049;-66
2022/01/04 04:19:13;;;;;;;25.42;11.68;;;8.00;99.90;;;;;;5034437;28;20049;-66
2022/01/04 04:21:38;;;;;;;24.83;12.48;;;8.10;99.90;;;;;;5033834;28;20048;-66
2022/01/04 04:24:04;;;;;;;25.88;12.07;;;8.00;99.90;;;;;;5033040;28;20139;-67
2022/01/04 04:26:29;;;;;;;29.38;12.40;;;8.00;99.90;;;;;;5033744;28;20061;-67
2022/01/04 04:28:55;;;;;;;29.45;13.27;;;8.00;99.90;;;;;;5034379;28;20052;-68
2022/01/04 04:31:21;;;;;;;26.02;12.68;;;8.00;99.90;;;;;;5034751;28;20045;-66
2022/01/04 04:33:46;;;;;;;27.80;12.88;;;8.00;99.90;;;;;;5037822;28;20484;-66
2022/01/04 04:36:12;;;;;;;29.35;13.50;;;8.40;99.90;;;;;;5037604;28;20083;-67
2022/01/04 04:38:37;;;;;;;27.38;13.35;;;8.00;99.90;;;;;;5036007;28;20115;-67
2022/01/04 04:41:03;;;;;;;28.17;12.85;;;8.00;99.90;;;;;;5035727;28;20080;-66
2022/01/04 04:43:28;;;;;;;20.35;12.35;;;8.00;99.90;;;;;;5037316;28;20103;-67
2022/01/04 04:45:54;;;;;;;24.23;12.77;;;8.00;99.90;;;;;;5036706;28;20052;-68
2022/01/04 04:48:20;;;;;;;28.58;13.95;;;8.00;99.90;;;;;;5037723;28;20106;-66
2022/01/04 04:50:45;;;;;;;26.63;12.85;;;8.00;99.90;;;;;;5037531;28;20057;-67
2022/01/04 04:53:11;;;;;;;26.42;13.48;;;8.00;99.90;;;;;;5036521;28;20485;-66
2022/01/04 04:55:37;;;;;;;25.92;14.55;;;8.00;99.90;;;;;;5036400;28;20064;-66
2022/01/04 04:58:02;;;;;;;24.23;12.77;;;8.00;99.90;;;;;;5037084;28;20053;-68
2022/01/04 05:00:28;;;;;;;25.30;12.43;;;7.90;99.90;;;;;;5037249;28;20128;-69
2022/01/04 05:02:53;;;;;;;26.25;13.20;;;8.00;99.90;;;;;;5035940;28;20061;-68
2022/01/04 05:05:19;;;;;;;26.83;12.82;;;8.00;99.90;;;;;;5036952;28;20135;-68
2022/01/04 05:07:45;;;;;;;23.25;12.45;;;8.00;99.90;;;;;;5035919;28;20057;-67
2022/01/04 05:10:11;;;;;;;24.65;12.45;;;8.00;99.90;;;;;;5037523;28;20482;-67
2022/01/04 05:12:36;;;;;;;21.65;12.02;;;8.00;99.90;;;;;;5036602;28;20071;-68
2022/01/04 05:15:04;;;;;;;18.45;11.18;;;8.00;99.90;;;;;;5036465;28;20078;-69
2022/01/04 05:17:31;;;;;;;25.30;12.52;;;8.00;99.90;;;;;;5035877;28;20427;-66
2022/01/04 05:19:57;;;;;;;29.90;12.40;;;7.90;99.90;;;;;;5036806;28;20044;-66
2022/01/04 05:22:23;;;;;;;19.10;11.88;;;7.90;99.90;;;;;;5032466;28;20396;-68
2022/01/04 05:24:48;;;;;;;21.67;12.10;;;8.00;99.90;;;;;;5035942;28;20053;-68
2022/01/04 05:27:14;;;;;;;25.83;12.70;;;7.90;99.90;;;;;;5036157;28;20064;-67
2022/01/04 05:29:40;;;;;;;26.08;12.57;;;7.90;99.90;;;;;;5036453;28;20060;-68
2022/01/04 05:32:06;;;;;;;23.40;12.23;;;7.90;99.90;;;;;;5019810;28;20400;-66
2022/01/04 05:34:32;;;;;;;29.02;12.20;;;7.90;99.90;;;;;;5036713;28;20118;-67
2022/01/04 05:36:57;;;;;;;24.27;12.38;;;7.90;99.90;;;;;;5035472;28;20470;-67
2022/01/04 05:39:23;;;;;;;23.42;12.35;;;7.90;99.90;;;;;;5035671;28;20052;-67
2022/01/04 05:41:49;;;;;;;22.70;12.68;;;7.80;99.90;;;;;;5036667;28;20057;-67
2022/01/04 05:44:14;;;;;;;24.67;12.80;;;7.80;99.90;;;;;;5035175;28;20049;-69
2022/01/04 05:46:40;;;;;;;23.92;13.18;;;7.90;99.90;;;;;;5019254;28;20392;-66
2022/01/04 05:49:06;;;;;;;25.13;12.35;;;7.90;99.90;;;;;;5034936;28;20071;-67
2022/01/04 05:51:32;;;;;;;23.27;12.02;;;7.90;99.90;;;;;;5024338;28;20057;-67
2022/01/04 05:53:57;;;;;;;21.50;12.38;;;7.90;99.90;;;;;;5016477;28;20056;-67
2022/01/04 05:56:23;;;;;;;25.48;12.68;;;7.90;99.90;;;;;;5016348;28;20047;-66
2022/01/04 05:58:48;;;;;;;22.17;11.98;;;7.90;99.90;;;;;;5016443;28;20049;-66
2022/01/04 06:01:14;;;;;;;24.58;12.27;;;7.90;99.90;;;;;;5015802;28;20506;-66
2022/01/04 06:03:40;;;;;;;24.33;12.75;;;7.90;99.90;;;;;;5015976;28;20460;-67
2022/01/04 06:06:05;;;;;;;24.92;12.57;;;7.90;99.90;;;;;;5020257;28;20151;-67
2022/01/04 06:08:35;;;;;;;23.17;12.85;;;7.90;99.90;;;;;;5016084;28;20041;-66
2022/01/04 06:11:01;;;;;;;24.88;13.45;;;7.90;99.90;;;;;;5015970;28;20103;-68
2022/01/04 06:16:11;;;;;;;29.65;14.68;;;7.90;99.90;;;;;;5032394;28;20056;-68
2022/01/04 06:18:39;;;;;;;26.30;14.63;;;7.90;99.90;;;;;;5035896;28;20049;-66
2022/01/04 06:21:06;;;;;;;24.48;14.00;;;8.00;99.90;;;;;;5017971;28;20493;-67
2022/01/04 06:23:32;;;;;;;34.35;16.48;;;7.90;99.90;;;;;;5035394;28;20053;-67
2022/01/04 06:25:57;;;;;;;31.98;15.52;;;7.90;99.90;;;;;;5033820;28;20048;-67
2022/01/04 06:28:23;;;;;;;38.92;16.52;;;7.90;99.90;;;;;;5031592;28;20044;-66
2022/01/04 06:30:52;;;;;;;28.98;14.52;;;7.80;99.90;;;;;;5031742;28;20053;-67
2022/01/04 06:33:23;;;;;;;31.00;15.70;;;7.80;99.90;;;;;;5033305;28;20355;-68
2022/01/04 06:35:49;;;;;;;33.05;16.83;;;7.80;99.90;;;;;;5015449;28;20064;-68
2022/01/04 06:38:15;;;;;;;29.30;15.20;;;7.80;99.90;;;;;;5034624;28;20064;-68
2022/01/04 06:40:41;;;;;;;30.23;14.40;;;7.80;99.90;;;;;;5035020;28;20045;-68
2022/01/04 06:43:06;;;;;;;32.28;14.82;;;7.80;99.90;;;;;;5035685;28;20481;-68
2022/01/04 06:45:32;;;;;;;29.77;15.38;;;7.80;99.90;;;;;;5034956;28;20053;-66
2022/01/04 06:47:57;;;;;;;34.45;16.95;;;7.80;99.90;;;;;;5033712;28;20052;-67
2022/01/04 06:50:24;;;;;;;28.23;15.38;;;7.80;99.90;;;;;;5034932;28;20053;-68
2022/01/04 06:52:49;;;;;;;30.92;17.40;;;7.80;99.90;;;;;;5033351;28;20052;-67
2022/01/04 06:55:15;;;;;;;27.67;16.45;;;7.90;99.90;;;;;;5034388;28;20485;-66
2022/01/04 06:57:42;;;;;;;34.15;17.10;;;7.80;99.90;;;;;;5050562;28;20048;-67
2022/01/04 07:00:08;;;;;;;32.60;16.60;;;7.80;99.90;;;;;;5035027;28;20056;-67
2022/01/04 07:02:34;;;;;;;34.75;17.58;;;7.80;99.90;;;;;;5039704;28;20128;-68
2022/01/04 07:04:59;;;;;;;30.50;17.55;;;7.80;99.90;;;;;;5033011;28;20564;-66
2022/01/04 07:07:25;;;;;;;32.42;18.13;;;7.80;99.90;;;;;;5040390;28;20049;-68
2022/01/04 07:09:51;;;;;;;34.50;17.63;;;7.80;99.90;;;;;;5050741;28;20110;-69
2022/01/04 07:12:16;;;;;;;36.88;18.73;;;7.80;99.90;;;;;;5026665;28;20064;-68
2022/01/04 07:14:42;;;;;;;35.75;18.10;;;7.80;99.90;;;;;;5034633;28;20477;-68
2022/01/04 07:17:08;;;;;;;34.80;18.75;;;7.80;99.90;;;;;;5034265;28;20509;-67
2022/01/04 07:19:33;;;;;;;33.70;18.60;;;7.80;99.90;;;;;;5033483;28;20041;-67
2022/01/04 07:21:59;;;;;;;30.83;18.35;;;7.80;99.90;;;;;;5018116;28;20049;-68
2022/01/04 07:24:25;;;;;;;36.33;17.50;;;7.80;99.90;;;;;;5034432;28;20509;-68
2022/01/04 07:26:51;;;;;;;35.90;18.00;;;7.80;99.90;;;;;;5031052;28;20130;-70
2022/01/04 07:29:17;;;;;;;33.22;17.90;;;7.70;99.90;;;;;;5034041;28;20485;-67
2022/01/04 07:31:42;;;;;;;34.03;18.55;;;7.80;99.90;;;;;;5033133;28;20049;-67
2022/01/04 07:34:08;;;;;;;35.85;19.00;;;7.70;99.90;;;;;;5050403;28;20118;-65
2022/01/04 07:36:33;;;;;;;35.85;18.05;;;7.70;99.90;;;;;;5033700;28;20049;-67
2022/01/04 07:38:59;;;;;;;38.25;17.63;;;7.70;99.90;;;;;;5033521;28;20049;-71
2022/01/04 07:41:25;;;;;;;37.25;19.33;;;7.80;99.90;;;;;;5034671;28;20049;-69
2022/01/04 07:43:50;;;;;;;37.78;18.38;;;7.80;99.90;;;;;;5024490;28;20401;-68
2022/01/04 07:46:16;;;;;;;37.47;20.55;;;7.80;99.90;;;;;;5032649;28;20051;-67
2022/01/04 07:48:42;;;;;;;37.67;20.02;;;7.70;99.90;;;;;;5032113;28;20143;-67
2022/01/04 07:51:07;;;;;;;33.65;18.25;;;7.80;99.90;;;;;;5033768;28;20144;-66
2022/01/04 07:53:33;;;;;;;36.13;19.90;;;7.70;99.90;;;;;;5051051;28;20056;-67
2022/01/04 07:55:59;;;;;;;38.58;18.58;;;7.80;99.90;;;;;;5017769;28;20397;-67
2022/01/04 07:58:25;;;;;;;33.33;18.65;;;7.70;99.90;;;;;;5034559;28;20049;-68
2022/01/04 08:00:51;;;;;;;30.05;16.98;;;7.70;99.90;;;;;;5033870;28;20434;-66
2022/01/04 08:03:17;;;;;;;33.35;19.02;;;7.80;99.90;;;;;;5029203;28;20187;-66
2022/01/04 08:05:43;;;;;;;30.45;17.00;;;7.70;99.90;;;;;;5032067;28;20227;-69
2022/01/04 08:08:09;;;;;;;33.45;18.13;;;7.70;99.90;;;;;;5028208;28;20045;-66
2022/01/04 08:10:35;;;;;;;34.35;16.73;;;7.80;99.90;;;;;;5034416;28;20063;-67
2022/01/04 08:13:01;;;;;;;31.13;16.30;;;7.70;99.90;;;;;;5020385;28;20041;-69
2022/01/04 08:15:27;;;;;;;28.08;15.35;;;7.70;99.90;;;;;;5037837;28;20072;-67
2022/01/04 08:17:53;;;;;;;32.35;15.68;;;7.70;99.90;;;;;;5037377;28;20045;-67
2022/01/04 08:20:19;;;;;;;28.20;16.05;;;7.70;99.90;;;;;;5038578;28;20194;-66
2022/01/04 08:22:44;;;;;;;29.90;16.20;;;7.70;99.90;;;;;;5037598;28;20055;-67
2022/01/04 08:25:11;;;;;;;27.67;16.60;;;7.70;99.90;;;;;;5037636;28;20055;-69
2022/01/04 08:27:38;;;;;;;33.90;18.95;;;7.70;99.90;;;;;;5035439;28;20120;-67
2022/01/04 08:30:06;;;;;;;33.70;18.80;;;7.70;99.90;;;;;;5024914;28;20132;-67
2022/01/04 08:32:32;;;;;;;31.02;17.63;;;7.70;99.90;;;;;;5017424;28;20156;-67
2022/01/04 08:34:57;;;;;;;34.28;19.02;;;7.70;99.90;;;;;;5035522;28;20537;-67
2022/01/04 08:37:23;;;;;;;33.35;19.23;;;7.70;99.90;;;;;;5017339;28;20053;-66
2022/01/04 08:39:48;;;;;;;37.38;17.90;;;7.70;99.90;;;;;;5035912;28;20073;-67
2022/01/04 08:42:14;;;;;;;34.47;18.23;;;7.70;99.90;;;;;;5001322;28;20065;-67
2022/01/04 08:44:40;;;;;;;33.17;18.05;;;7.70;99.90;;;;;;5017991;28;20405;-67
2022/01/04 08:47:10;;;;;;;32.63;17.42;;;7.70;99.90;;;;;;5017722;28;20108;-66
2022/01/04 08:49:36;;;;;;;33.70;16.80;;;7.70;99.90;;;;;;5017547;28;20049;-65
2022/01/04 08:52:07;;;;;;;29.55;17.13;;;7.70;99.90;;;;;;5035081;28;20525;-67
2022/01/04 08:54:33;;;;;;;31.30;17.85;;;7.70;99.90;;;;;;5017125;28;20049;-67
2022/01/04 08:56:59;;;;;;;30.80;17.13;;;7.70;99.90;;;;;;5017150;28;20092;-65
2022/01/04 08:59:27;;;;;;;31.30;17.40;;;7.80;99.90;;;;;;5016770;28;20053;-67
2022/01/04 09:01:53;;;;;;;32.70;17.48;;;7.70;99.90;;;;;;5016350;28;20048;-68
2022/01/04 09:04:18;;;;;;;33.70;17.73;;;7.90;99.90;;;;;;5001451;28;20396;-67
2022/01/04 09:06:44;;;;;;;31.02;17.55;;;7.80;99.90;;;;;;5002232;28;20077;-67
2022/01/04 09:09:09;;;;;;;30.85;16.20;;;7.80;99.90;;;;;;5032722;28;20057;-66
2022/01/04 09:11:35;;;;;;;23.48;13.00;;;7.80;99.90;;;;;;5050366;28;20053;-67
2022/01/04 09:14:26;;;;;;;16.73;10.60;;;7.80;99.90;;;;;;5033250;28;20060;-69
2022/01/04 09:19:31;;;;;;;14.93;8.52;;;7.70;99.90;;;;;;5033317;28;20086;-65
2022/01/04 09:21:57;;;;;;;11.40;6.25;;;7.70;99.90;;;;;;5019477;28;20052;-66
2022/01/04 09:24:22;;;;;;;8.15;5.20;;;7.70;99.90;;;;;;5021625;28;20060;-68
2022/01/04 09:26:48;;;;;;;12.60;4.55;;;7.60;99.90;;;;;;5020122;28;20049;-67
2022/01/04 09:29:23;;;;;;;13.88;5.30;;;7.50;99.90;;;;;;5051559;28;20045;-71
2022/01/04 09:31:50;;;;;;;14.32;6.30;;;7.50;99.90;;;;;;5051909;28;20044;-68
2022/01/04 09:34:15;;;;;;;15.57;7.45;;;7.50;99.90;;;;;;5039906;28;20492;-68
2022/01/04 09:36:41;;;;;;;13.70;7.95;;;7.50;99.90;;;;;;5052388;28;20053;-66
2022/01/04 09:39:10;;;;;;;23.67;9.48;;;7.50;99.90;;;;;;5035217;28;20098;-68
2022/01/04 09:41:36;;;;;;;18.38;9.65;;;7.50;99.90;;;;;;5048748;28;20064;-68
2022/01/04 09:44:05;;;;;;;23.38;11.43;;;7.50;99.90;;;;;;5074289;28;20053;-66
2022/01/04 09:46:31;;;;;;;23.08;11.35;;;7.50;99.90;;;;;;5039415;28;20048;-67
2022/01/04 09:48:57;;;;;;;20.63;11.00;;;7.50;99.90;;;;;;5056042;28;20076;-68
2022/01/04 09:51:22;;;;;;;21.80;11.77;;;7.60;99.90;;;;;;5044667;28;20084;-67
2022/01/04 09:53:49;;;;;;;18.92;10.88;;;7.60;99.90;;;;;;5018024;28;20045;-69
2022/01/04 09:56:15;;;;;;;21.98;11.07;;;7.60;99.90;;;;;;5016289;28;20186;-68
2022/01/04 09:58:41;;;;;;;21.75;11.25;;;7.60;99.90;;;;;;5012719;28;20049;-69
2022/01/04 10:01:16;;;;;;;17.30;10.32;;;7.60;99.90;;;;;;5034933;28;20195;-68
2022/01/04 10:03:42;;;;;;;16.30;9.95;;;7.70;99.90;;;;;;5033878;28;20504;-67
2022/01/04 10:06:15;;;;;;;22.88;10.00;;;7.60;99.90;;;;;;5035848;28;20052;-67
2022/01/04 10:08:53;;;;;;;20.42;9.48;;;7.70;99.90;;;;;;5053557;28;20061;-69
2022/01/04 10:11:50;;;;;;;16.63;8.80;;;7.60;99.90;;;;;;5053378;28;20064;-66
2022/01/04 10:14:35;;;;;;;15.95;9.18;;;7.70;99.90;;;;;;5016066;28;20057;-70
2022/01/04 10:17:06;;;;;;;16.55;9.10;;;7.70;99.90;;;;;;5015210;28;20087;-68
2022/01/04 10:19:40;;;;;;;18.63;9.10;;;7.70;99.90;;;;;;5036678;28;20406;-68
2022/01/04 10:22:19;;;;;;;24.15;9.18;;;7.80;99.90;;;;;;5038937;28;20060;-66
2022/01/04 10:24:49;;;;;;;23.65;8.43;;;7.70;99.90;;;;;;5040596;28;20056;-68
2022/01/04 10:27:44;;;;;;;8.20;3.42;;;7.80;99.90;;;;;;5054812;28;20052;-68
2022/01/04 10:30:25;;;;;;;9.13;2.88;;;7.60;99.90;;;;;;5022440;28;20815;-67
2022/01/04 10:33:01;;;;;;;5.25;2.10;;;7.50;99.90;;;;;;5044661;28;20478;-68
2022/01/04 10:35:30;;;;;;;6.68;2.35;;;7.30;99.90;;;;;;5024341;28;20156;-67
2022/01/04 10:38:13;;;;;;;8.23;2.72;;;7.30;99.90;;;;;;5043026;28;20063;-67
2022/01/04 10:40:40;;;;;;;4.35;2.30;;;7.20;99.90;;;;;;5035409;28;20079;-67
2022/01/04 10:43:08;;;;;;;6.82;1.85;;;7.10;99.90;;;;;;5035522;28;20053;-67
2022/01/04 10:45:35;;;;;;;8.68;1.52;;;7.00;99.90;;;;;;5053494;28;20064;-67
2022/01/04 10:48:22;;;;;;;4.05;1.30;;;7.10;99.90;;;;;;5018281;28;20057;-67
2022/01/04 10:50:59;;;;;;;6.68;1.58;;;6.90;99.90;;;;;;5035355;28;20049;-68
2022/01/04 10:53:29;;;;;;;2.83;1.30;;;6.90;99.90;;;;;;5033971;28;20049;-69
2022/01/04 10:56:01;;;;;;;6.93;1.90;;;6.90;99.90;;;;;;5033145;28;20161;-69
2022/01/04 10:58:30;;;;;;;7.15;1.55;;;6.90;99.90;;;;;;5040879;28;20489;-68
2022/01/04 11:01:14;;;;;;;7.35;1.92;;;6.90;99.90;;;;;;5045193;28;20055;-68
2022/01/04 11:04:00;;;;;;;3.55;1.70;;;6.90;99.90;;;;;;5031796;28;20493;-69
2022/01/04 11:06:35;;;;;;;3.70;1.83;;;6.90;99.90;;;;;;5029677;28;20381;-70
2022/01/04 11:09:03;;;;;;;2.35;1.17;;;6.90;99.90;;;;;;5010960;28;20054;-69
2022/01/04 11:11:28;;;;;;;4.90;1.35;;;6.80;99.90;;;;;;5006040;28;20145;-68
2022/01/04 11:13:54;;;;;;;3.83;1.10;;;6.80;99.90;;;;;;5009529;28;20485;-68
2022/01/04 11:16:25;;;;;;;6.13;1.45;;;6.80;99.90;;;;;;4995866;28;20137;-67
2022/01/04 11:18:52;;;;;;;5.50;1.42;;;6.80;99.90;;;;;;5013232;28;20447;-71
2022/01/04 11:21:28;;;;;;;6.78;1.80;;;6.70;99.90;;;;;;5012364;28;20085;-68
2022/01/04 11:23:57;;;;;;;2.33;1.23;;;6.70;99.90;;;;;;4998701;28;20497;-68
2022/01/04 11:26:24;;;;;;;6.28;1.63;;;6.70;99.90;;;;;;5012702;28;20124;-69
2022/01/04 11:28:51;;;;;;;3.85;1.60;;;6.70;99.90;;;;;;4992046;28;20052;-67
2022/01/04 11:31:41;;;;;;;5.57;1.50;;;6.70;99.90;;;;;;5014137;28;20088;-69
2022/01/04 11:34:09;;;;;;;5.30;1.00;;;6.70;99.90;;;;;;5031765;28;20050;-69
2022/01/04 11:36:37;;;;;;;2.42;1.00;;;6.70;99.90;;;;;;5032564;28;20374;-67
2022/01/04 11:39:23;;;;;;;2.35;1.10;;;6.60;99.90;;;;;;5032621;28;20060;-70
2022/01/04 11:41:49;;;;;;;1.55;0.98;;;6.50;99.90;;;;;;5007045;28;20061;-69
2022/01/04 11:44:20;;;;;;;3.45;0.98;;;6.40;99.90;;;;;;5014272;28;20053;-70
2022/01/04 11:47:00;;;;;;;2.08;0.90;;;6.40;99.90;;;;;;5017632;28;20062;-68
2022/01/04 11:49:25;;;;;;;3.92;0.98;;;6.30;99.90;;;;;;5017986;28;20049;-70
2022/01/04 11:51:51;;;;;;;1.90;1.08;;;6.40;99.90;;;;;;5019104;28;20374;-68
2022/01/04 11:54:30;;;;;;;2.25;0.70;;;6.30;99.90;;;;;;5018669;28;20101;-67
2022/01/04 11:57:14;;;;;;;2.00;0.80;;;6.30;99.90;;;;;;5032293;28;20054;-69
2022/01/04 11:59:47;;;;;;;4.35;1.17;;;6.20;99.90;;;;;;5005470;28;20050;-68
2022/01/04 12:02:35;;;;;;;3.65;0.80;;;6.20;99.90;;;;;;4998335;28;20125;-69
2022/01/04 12:05:24;;;;;;;3.55;0.88;;;6.20;99.90;;;;;;4998841;28;20151;-67
2022/01/04 12:07:52;;;;;;;4.75;1.00;;;6.20;99.90;;;;;;5007451;28;20045;-67
2022/01/04 12:10:20;;;;;;;6.38;0.95;;;6.10;99.90;;;;;;5035911;28;20064;-68
2022/01/04 12:12:58;;;;;;;2.83;0.93;;;6.10;99.90;;;;;;5020125;28;20144;-68
2022/01/04 12:15:33;;;;;;;3.00;1.00;;;6.10;99.90;;;;;;5037513;28;20485;-68
2022/01/04 12:18:05;;;;;;;3.38;1.05;;;6.10;99.90;;;;;;5037836;28;20045;-68
2022/01/04 12:20:46;;;;;;;3.35;1.00;;;6.00;99.90;;;;;;5037741;28;20045;-67
2022/01/04 12:23:29;;;;;;;3.80;1.00;;;6.10;99.90;;;;;;5056037;28;20069;-68
2022/01/04 12:26:04;;;;;;;2.75;1.00;;;6.00;99.90;;;;;;5037538;28;20120;-66
2022/01/04 12:28:33;;;;;;;3.03;0.80;;;5.90;99.90;;;;;;5035846;28;20048;-67
2022/01/04 12:31:20;;;;;;;4.82;1.35;;;5.50;99.90;;;;;;5037540;28;20087;-68
2022/01/04 12:33:48;;;;;;;3.83;0.95;;;5.40;99.90;;;;;;5037851;28;20500;-69
2022/01/04 12:36:26;;;;;;;6.38;1.13;;;5.40;99.90;;;;;;5034308;28;20065;-67
2022/01/04 12:38:53;;;;;;;4.13;1.00;;;5.40;99.90;;;;;;5017923;28;20087;-68
2022/01/04 12:41:19;;;;;;;3.15;0.90;;;5.40;99.90;;;;;;5018181;28;20056;-67
2022/01/04 12:43:47;;;;;;;4.32;1.00;;;5.40;99.90;;;;;;5004254;28;20053;-68
2022/01/04 12:46:14;;;;;;;3.35;0.98;;;5.50;99.90;;;;;;5018598;28;20477;-67
2022/01/04 12:48:50;;;;;;;6.50;1.10;;;5.50;99.90;;;;;;5022389;28;20052;-67
2022/01/04 12:51:28;;;;;;;2.72;0.88;;;5.60;99.90;;;;;;5050167;28;20067;-68
2022/01/04 12:54:02;;;;;;;3.40;1.00;;;5.60;99.90;;;;;;5017329;28;20053;-67